Time;durP1;ratioP1;P1;durP2;ratioP2;P2;SDS_P1;SDS_P2;PMS_P1;PMS_P2;Temp;Humidity;BMP_temperature;BMP_pressure;BME280_temperature;BME280_humidity;BME280_pressure;Samples;Min_cycle;Max_cycle;Signal;HPM_P1;HPM_P2
2022/01/16 00:06:13;;;;;;;65.30;32.78;;;1.80;99.90;;;;;;5053466;28;20166;-61
2022/01/16 00:08:39;;;;;;;81.00;36.50;;;1.80;99.90;;;;;;5053103;28;20448;-60
2022/01/16 00:11:04;;;;;;;70.78;34.85;;;1.80;99.90;;;;;;5053070;28;20051;-60
2022/01/16 00:13:30;;;;;;;83.80;37.20;;;1.80;99.90;;;;;;5051524;28;20025;-60
2022/01/16 00:15:55;;;;;;;82.65;36.33;;;1.80;99.90;;;;;;5052953;28;20021;-60
2022/01/16 00:18:27;;;;;;;75.18;36.22;;;1.80;99.90;;;;;;5052979;28;20021;-60
2022/01/16 00:20:53;;;;;;;75.13;34.10;;;1.80;99.90;;;;;;5052966;28;20017;-60
2022/01/16 00:23:24;;;;;;;78.22;35.40;;;1.80;99.90;;;;;;5052515;28;20443;-60
2022/01/16 00:25:52;;;;;;;71.82;32.83;;;1.80;99.90;;;;;;5052915;28;20078;-61
2022/01/16 00:28:17;;;;;;;61.55;29.27;;;1.80;99.90;;;;;;5052481;28;20105;-61
2022/01/16 00:30:43;;;;;;;72.82;33.85;;;1.80;99.90;;;;;;5052540;28;20108;-61
2022/01/16 00:33:08;;;;;;;76.35;34.38;;;1.90;99.90;;;;;;5051332;28;20473;-61
2022/01/16 00:35:34;;;;;;;83.78;38.53;;;1.80;99.90;;;;;;5052699;28;20028;-61
2022/01/16 00:37:59;;;;;;;73.95;33.47;;;1.80;99.90;;;;;;5052680;28;20052;-61
2022/01/16 00:40:25;;;;;;;73.30;33.85;;;1.80;99.90;;;;;;5052446;28;20033;-61
2022/01/16 00:42:51;;;;;;;72.30;32.78;;;1.80;99.90;;;;;;5051376;28;20024;-61
2022/01/16 00:45:17;;;;;;;72.43;32.70;;;1.80;99.90;;;;;;5052517;28;20087;-61
2022/01/16 00:47:42;;;;;;;68.68;31.42;;;1.80;99.90;;;;;;5052626;28;20469;-61
2022/01/16 00:50:08;;;;;;;84.97;36.92;;;1.80;99.90;;;;;;5052530;28;20060;-61
2022/01/16 00:52:34;;;;;;;75.82;34.10;;;1.80;99.90;;;;;;5052482;28;20545;-61
2022/01/16 00:55:03;;;;;;;77.00;34.45;;;1.70;99.90;;;;;;5052283;28;20119;-61
2022/01/16 00:57:29;;;;;;;69.75;31.10;;;1.70;99.90;;;;;;5052565;28;20071;-61
2022/01/16 00:59:55;;;;;;;74.47;33.10;;;1.70;99.90;;;;;;5052383;28;20032;-61
2022/01/16 01:02:21;;;;;;;71.15;32.20;;;1.80;99.90;;;;;;5052550;28;20032;-60
2022/01/16 01:04:47;;;;;;;68.22;31.65;;;1.80;99.90;;;;;;5052453;28;20029;-61
2022/01/16 01:07:13;;;;;;;70.70;32.28;;;1.80;99.90;;;;;;5051248;28;20017;-60
2022/01/16 01:09:39;;;;;;;65.25;31.10;;;1.80;99.90;;;;;;5045266;28;20029;-60
2022/01/16 01:12:06;;;;;;;69.72;32.08;;;1.80;99.90;;;;;;5032502;28;20112;-60
2022/01/16 01:17:07;;;;;;;81.78;33.80;;;1.90;99.90;;;;;;5052670;28;20021;-60
2022/01/16 01:19:34;;;;;;;75.22;34.35;;;1.90;99.90;;;;;;5052197;28;20384;-60
2022/01/16 01:22:04;;;;;;;80.38;36.70;;;1.90;99.90;;;;;;5052093;28;20041;-60
2022/01/16 01:24:32;;;;;;;70.38;34.50;;;1.90;99.90;;;;;;5052046;28;20020;-60
2022/01/16 01:27:06;;;;;;;73.93;30.73;;;1.90;99.90;;;;;;5052102;28;20036;-60
2022/01/16 01:29:32;;;;;;;70.63;31.70;;;1.90;99.90;;;;;;5052352;28;20029;-60
2022/01/16 01:31:59;;;;;;;77.72;34.38;;;1.90;99.90;;;;;;5052160;28;20440;-60
2022/01/16 01:34:24;;;;;;;72.40;33.75;;;1.90;99.90;;;;;;5052092;28;20035;-60
2022/01/16 01:36:51;;;;;;;78.30;34.65;;;1.90;99.90;;;;;;5051975;28;20017;-60
2022/01/16 01:39:21;;;;;;;71.80;30.52;;;1.90;99.90;;;;;;5052104;28;20377;-60
2022/01/16 01:41:49;;;;;;;71.35;32.25;;;1.90;99.90;;;;;;5054862;28;20059;-60
2022/01/16 01:52:28;;;;;;;69.40;32.55;;;1.90;99.90;;;;;;5055866;28;20036;-60
2022/01/16 01:54:54;;;;;;;72.60;33.15;;;1.80;99.90;;;;;;5055421;28;20385;-60
2022/01/16 01:57:20;;;;;;;67.53;33.05;;;1.80;99.90;;;;;;5054290;28;20021;-60
2022/01/16 01:59:45;;;;;;;68.32;32.40;;;1.80;99.90;;;;;;5055381;28;20025;-60
2022/01/16 02:02:11;;;;;;;65.45;29.73;;;1.90;99.90;;;;;;5055530;28;20024;-60
2022/01/16 02:04:37;;;;;;;67.32;33.72;;;1.90;99.90;;;;;;5055476;28;20025;-60
2022/01/16 02:07:03;;;;;;;71.15;33.25;;;1.90;99.90;;;;;;5055484;28;20025;-60
2022/01/16 02:09:30;;;;;;;65.75;32.15;;;1.90;99.90;;;;;;5055817;28;20029;-61
2022/01/16 02:11:56;;;;;;;70.85;34.10;;;1.90;99.90;;;;;;5055040;28;20108;-60
2022/01/16 02:14:32;;;;;;;74.20;37.08;;;1.90;99.90;;;;;;5055102;28;20112;-61
2022/01/16 02:28:24;;;;;;;72.15;35.65;;;1.70;99.90;;;;;;5055040;28;20151;-60
2022/01/16 02:36:32;;;;;;;71.38;37.38;;;1.70;99.90;;;;;;5055090;28;20025;-61
2022/01/16 02:39:10;;;;;;;68.05;34.60;;;1.70;99.90;;;;;;5054799;28;20017;-61
2022/01/16 02:41:36;;;;;;;75.78;37.10;;;1.70;99.90;;;;;;5054684;28;20540;-61
2022/01/16 02:44:12;;;;;;;76.03;39.97;;;1.60;99.90;;;;;;5054586;28;20067;-60
2022/01/16 02:46:37;;;;;;;67.00;34.03;;;1.60;99.90;;;;;;5054705;28;20473;-61
2022/01/16 02:49:03;;;;;;;76.65;38.58;;;1.60;99.90;;;;;;5054951;28;20074;-61
2022/01/16 02:51:29;;;;;;;73.45;35.92;;;1.60;99.90;;;;;;5054249;28;20392;-60
2022/01/16 02:53:55;;;;;;;71.03;32.67;;;1.60;99.90;;;;;;5053764;28;20381;-60
2022/01/16 02:56:22;;;;;;;76.25;36.15;;;1.70;99.90;;;;;;5054496;28;20021;-61
2022/01/16 02:58:49;;;;;;;78.53;37.38;;;1.70;99.90;;;;;;5054452;28;20430;-60
2022/01/16 03:01:15;;;;;;;76.88;36.78;;;1.70;99.90;;;;;;5054446;28;20040;-60
2022/01/16 03:03:40;;;;;;;78.45;36.88;;;1.70;99.90;;;;;;5054393;28;20385;-60
2022/01/16 03:06:06;;;;;;;78.57;35.42;;;1.70;99.90;;;;;;5054194;28;20037;-60
2022/01/16 03:08:32;;;;;;;68.10;34.50;;;1.80;99.90;;;;;;5054205;28;20057;-60
2022/01/16 03:13:31;;;;;;;77.95;35.13;;;1.70;99.90;;;;;;5053997;28;20370;-60
2022/01/16 03:15:56;;;;;;;73.05;32.25;;;1.70;99.90;;;;;;5054024;28;20029;-61
2022/01/16 03:23:33;;;;;;;86.13;35.63;;;1.80;99.90;;;;;;5054002;28;20107;-60
2022/01/16 03:25:59;;;;;;;89.25;35.72;;;1.80;99.90;;;;;;5054157;28;20108;-60
2022/01/16 03:28:25;;;;;;;90.72;37.35;;;1.80;99.90;;;;;;5054032;28;20109;-61
2022/01/16 03:30:52;;;;;;;89.50;35.42;;;1.90;99.90;;;;;;5052786;28;20033;-61
2022/01/16 03:33:17;;;;;;;92.78;38.15;;;1.90;99.90;;;;;;5053642;28;20091;-61
2022/01/16 03:35:43;;;;;;;85.45;35.63;;;1.90;99.90;;;;;;5053484;28;20473;-61
2022/01/16 03:38:10;;;;;;;91.43;36.28;;;1.90;99.90;;;;;;5053611;28;20028;-61
2022/01/16 03:40:36;;;;;;;86.90;37.25;;;1.90;99.90;;;;;;5053603;28;20103;-61
2022/01/16 03:43:12;;;;;;;89.10;37.70;;;1.90;99.90;;;;;;5052335;28;20028;-60
2022/01/16 03:45:40;;;;;;;91.32;38.22;;;1.90;99.90;;;;;;5053643;28;20021;-60
2022/01/16 03:48:05;;;;;;;89.32;38.25;;;1.90;99.90;;;;;;5053436;28;20053;-60
2022/01/16 03:50:31;;;;;;;94.25;39.42;;;2.00;99.90;;;;;;5053545;28;20063;-60
2022/01/16 03:52:56;;;;;;;81.13;35.75;;;2.00;99.90;;;;;;5053376;28;20029;-60
2022/01/16 03:55:22;;;;;;;90.00;38.10;;;2.00;99.90;;;;;;5053475;28;20032;-61
2022/01/16 03:57:48;;;;;;;88.88;38.45;;;2.00;99.90;;;;;;5053228;28;20037;-60
2022/01/16 04:00:13;;;;;;;87.30;40.67;;;2.00;99.90;;;;;;5053313;28;20116;-60
2022/01/16 04:02:39;;;;;;;91.32;40.83;;;2.00;99.90;;;;;;5052522;28;20079;-60
2022/01/16 04:05:05;;;;;;;82.70;38.38;;;2.00;99.90;;;;;;5052992;28;20021;-60
2022/01/16 04:07:35;;;;;;;93.57;41.40;;;2.00;99.90;;;;;;5053562;28;20025;-60
2022/01/16 04:10:06;;;;;;;82.15;38.90;;;2.00;99.90;;;;;;5053220;28;20021;-60
2022/01/16 04:12:34;;;;;;;86.72;39.88;;;2.00;99.90;;;;;;5053134;28;20023;-60
2022/01/16 04:17:25;;;;;;;90.07;41.85;;;2.00;99.90;;;;;;5053078;28;20029;-60
2022/01/16 04:19:52;;;;;;;91.85;42.03;;;2.00;99.90;;;;;;5052951;28;20029;-60
2022/01/16 04:22:19;;;;;;;94.15;43.67;;;2.10;99.90;;;;;;5052805;28;20076;-60
2022/01/16 04:24:44;;;;;;;94.38;43.20;;;2.10;99.90;;;;;;5052993;28;20114;-60
2022/01/16 04:27:11;;;;;;;94.88;41.97;;;2.10;99.90;;;;;;5052902;28;20048;-60
2022/01/16 04:29:38;;;;;;;93.57;45.88;;;2.00;99.90;;;;;;5052710;28;20033;-60
2022/01/16 04:32:04;;;;;;;91.45;42.20;;;2.00;99.90;;;;;;5052738;28;20491;-60
2022/01/16 04:34:30;;;;;;;102.72;45.20;;;2.00;99.90;;;;;;5052733;28;20435;-60
2022/01/16 04:36:56;;;;;;;88.55;43.42;;;2.10;99.90;;;;;;5052757;28;20021;-61
2022/01/16 04:39:30;;;;;;;91.90;42.65;;;2.00;99.90;;;;;;5052857;28;20028;-60
2022/01/16 04:44:39;;;;;;;101.85;46.42;;;2.10;99.90;;;;;;5052934;28;20055;-60
2022/01/16 04:47:05;;;;;;;105.80;46.55;;;2.10;99.90;;;;;;5052581;28;20025;-61
2022/01/16 04:49:30;;;;;;;104.00;45.63;;;2.10;99.90;;;;;;5052697;28;20053;-61
2022/01/16 04:51:56;;;;;;;108.78;49.45;;;2.10;99.90;;;;;;5052592;28;20104;-61
2022/01/16 04:54:21;;;;;;;107.28;46.35;;;2.10;99.90;;;;;;5052519;28;20472;-60
2022/01/16 04:56:47;;;;;;;106.80;48.80;;;2.10;99.90;;;;;;5052484;28;20071;-60
2022/01/16 04:59:13;;;;;;;114.80;51.17;;;2.10;99.90;;;;;;5052460;28;20500;-60
2022/01/16 05:01:39;;;;;;;102.50;47.80;;;2.10;99.90;;;;;;5052495;28;20092;-61
2022/01/16 05:04:04;;;;;;;105.50;45.95;;;2.10;99.90;;;;;;5052477;28;20107;-61
2022/01/16 05:06:30;;;;;;;101.20;45.95;;;2.10;99.90;;;;;;5051146;28;20033;-60
2022/01/16 05:08:55;;;;;;;107.45;46.65;;;2.10;99.90;;;;;;5052053;28;20155;-60
2022/01/16 05:11:25;;;;;;;99.97;46.53;;;2.10;99.90;;;;;;5051642;28;20060;-60
2022/01/16 05:16:34;;;;;;;96.05;45.95;;;2.10;99.90;;;;;;5053349;28;20123;-61
2022/01/16 05:19:00;;;;;;;101.85;47.35;;;2.10;99.90;;;;;;5056289;28;20031;-60
2022/01/16 05:21:26;;;;;;;103.80;45.30;;;2.10;99.90;;;;;;5056357;28;20061;-61
2022/01/16 05:23:51;;;;;;;99.72;45.90;;;2.10;99.90;;;;;;5056039;28;20083;-60
2022/01/16 05:26:20;;;;;;;98.55;45.30;;;2.10;99.90;;;;;;5054973;28;20029;-60
2022/01/16 05:28:46;;;;;;;100.90;48.65;;;2.10;99.90;;;;;;5055062;28;20029;-60
2022/01/16 05:31:12;;;;;;;107.90;47.03;;;2.10;99.90;;;;;;5056282;28;20035;-61
2022/01/16 05:33:37;;;;;;;109.63;49.67;;;2.10;99.90;;;;;;5055999;28;20029;-60
2022/01/16 05:36:03;;;;;;;97.55;46.22;;;2.10;99.90;;;;;;5056074;28;20070;-60
2022/01/16 05:38:29;;;;;;;106.07;47.50;;;2.10;99.90;;;;;;5055932;28;20017;-61
2022/01/16 05:40:54;;;;;;;94.88;45.95;;;2.10;99.90;;;;;;5055907;28;20469;-60
2022/01/16 05:43:20;;;;;;;106.85;47.50;;;2.20;99.90;;;;;;5056048;28;20029;-61
2022/01/16 05:45:45;;;;;;;95.53;48.42;;;2.20;99.90;;;;;;5055691;28;20099;-61
2022/01/16 05:48:11;;;;;;;103.47;48.38;;;2.20;99.90;;;;;;5055885;28;20116;-61
2022/01/16 05:50:37;;;;;;;98.45;47.03;;;2.20;99.90;;;;;;5054538;28;20040;-60
2022/01/16 05:53:03;;;;;;;101.10;51.45;;;2.20;99.90;;;;;;5055649;28;20029;-60
2022/01/16 05:55:35;;;;;;;102.63;49.70;;;2.20;99.90;;;;;;5055766;28;20075;-60
2022/01/16 05:58:01;;;;;;;94.57;48.13;;;2.20;99.90;;;;;;5054536;28;20028;-60
2022/01/16 06:00:26;;;;;;;106.25;50.65;;;2.20;99.90;;;;;;5055534;28;20025;-60
2022/01/16 06:02:52;;;;;;;98.53;48.92;;;2.20;99.90;;;;;;5055546;28;20024;-60
2022/01/16 06:05:17;;;;;;;99.72;50.95;;;2.30;99.90;;;;;;5055526;28;20033;-60
2022/01/16 06:07:53;;;;;;;101.50;48.45;;;2.20;99.90;;;;;;5055390;28;20037;-60
2022/01/16 06:10:18;;;;;;;96.68;47.75;;;2.30;99.90;;;;;;5055628;28;20377;-61
2022/01/16 06:12:44;;;;;;;94.85;47.53;;;2.20;99.90;;;;;;5055277;28;20029;-61
2022/01/16 06:15:10;;;;;;;93.88;48.88;;;2.30;99.90;;;;;;5055303;28;20021;-60
2022/01/16 06:17:35;;;;;;;92.90;47.90;;;2.30;99.90;;;;;;5055079;28;20029;-60
2022/01/16 06:20:02;;;;;;;94.88;50.17;;;2.40;99.90;;;;;;5055196;28;20079;-60
2022/01/16 06:22:27;;;;;;;101.00;50.97;;;2.40;99.90;;;;;;5055018;28;20040;-60
2022/01/16 06:24:53;;;;;;;90.68;48.72;;;2.50;99.90;;;;;;5055147;28;20066;-60
2022/01/16 06:27:18;;;;;;;97.68;49.40;;;2.50;99.90;;;;;;5053749;28;20025;-60
2022/01/16 06:29:44;;;;;;;97.75;50.53;;;2.50;99.90;;;;;;5053813;28;20447;-60
2022/01/16 06:32:09;;;;;;;100.00;51.67;;;2.50;99.90;;;;;;5054921;28;20091;-61
2022/01/16 06:34:35;;;;;;;88.38;48.22;;;2.60;99.90;;;;;;5053878;28;20473;-61
2022/01/16 06:37:00;;;;;;;88.43;47.45;;;2.60;99.90;;;;;;5054508;28;20485;-60
2022/01/16 06:39:29;;;;;;;89.07;46.60;;;2.60;99.90;;;;;;5045078;28;20049;-60
2022/01/16 06:41:54;;;;;;;81.63;45.17;;;2.70;99.90;;;;;;5039093;28;20363;-60
2022/01/16 06:44:20;;;;;;;83.30;45.33;;;2.70;99.90;;;;;;5038108;28;20500;-60
2022/01/16 06:46:46;;;;;;;87.28;46.13;;;2.80;99.90;;;;;;5037762;28;20473;-60
2022/01/16 06:49:12;;;;;;;80.47;45.03;;;2.80;99.90;;;;;;5044117;28;20032;-61
2022/01/16 06:51:38;;;;;;;77.47;42.47;;;2.80;99.90;;;;;;5052783;28;20029;-60
2022/01/16 06:54:04;;;;;;;82.07;44.10;;;2.90;99.90;;;;;;5051576;28;20029;-60
2022/01/16 06:56:30;;;;;;;83.63;45.45;;;2.90;99.90;;;;;;5047943;28;20017;-60
2022/01/16 06:58:57;;;;;;;81.15;46.50;;;3.00;99.90;;;;;;5047799;28;20032;-61
2022/01/16 07:01:23;;;;;;;80.15;46.08;;;3.00;99.90;;;;;;5050482;28;20385;-61
2022/01/16 07:03:49;;;;;;;81.00;44.53;;;3.00;99.90;;;;;;5050196;28;20386;-61
2022/01/16 07:06:15;;;;;;;77.68;44.95;;;3.10;99.90;;;;;;5047518;28;20032;-61
2022/01/16 07:08:41;;;;;;;86.13;47.05;;;3.10;99.90;;;;;;5047672;28;20033;-61
2022/01/16 07:11:07;;;;;;;83.25;47.10;;;3.10;99.90;;;;;;5050805;28;20400;-61
2022/01/16 07:13:33;;;;;;;81.93;46.45;;;3.20;99.90;;;;;;5049233;28;20021;-61
2022/01/16 07:15:58;;;;;;;82.50;44.47;;;3.20;99.90;;;;;;5047451;28;20035;-61
2022/01/16 07:18:24;;;;;;;82.40;46.00;;;3.20;99.90;;;;;;5047116;28;20083;-61
2022/01/16 07:20:50;;;;;;;75.35;44.40;;;3.20;99.90;;;;;;5051422;28;20058;-61
2022/01/16 07:23:17;;;;;;;79.47;44.50;;;3.20;99.90;;;;;;5049953;28;20049;-61
2022/01/16 07:25:42;;;;;;;77.90;43.92;;;3.30;99.90;;;;;;5050011;28;20428;-60
2022/01/16 07:28:08;;;;;;;73.57;41.15;;;3.30;99.90;;;;;;5052604;28;20492;-61
2022/01/16 07:30:36;;;;;;;77.47;43.17;;;3.30;99.90;;;;;;5052586;28;20029;-61
2022/01/16 07:33:05;;;;;;;72.65;43.42;;;3.30;99.90;;;;;;5048075;28;20469;-61
2022/01/16 07:35:31;;;;;;;75.80;43.37;;;3.40;99.90;;;;;;5048992;28;20021;-61
2022/01/16 07:37:57;;;;;;;72.47;42.47;;;3.40;99.90;;;;;;5052127;28;20440;-60
2022/01/16 07:40:24;;;;;;;77.45;44.10;;;3.40;99.90;;;;;;5049786;28;20381;-61
2022/01/16 07:42:50;;;;;;;69.88;40.95;;;3.40;99.90;;;;;;5052447;28;20461;-61
2022/01/16 07:45:15;;;;;;;71.70;40.97;;;3.50;99.90;;;;;;5044199;28;20063;-61
2022/01/16 07:48:06;;;;;;;75.03;43.47;;;3.50;99.90;;;;;;5049364;28;20016;-61
2022/01/16 07:50:31;;;;;;;68.30;40.28;;;3.50;99.90;;;;;;5051577;28;20024;-61
2022/01/16 07:56:23;;;;;;;74.68;42.08;;;3.60;99.90;;;;;;5051436;28;20037;-61
2022/01/16 07:59:53;;;;;;;;;;;;;;;;;;;;;
2022/01/16 08:03:02;;;;;;;;;;;;;;;;;;;;;
2022/01/16 08:12:59;;;;;;;69.15;39.38;;;3.70;99.90;;;;;;5030465;28;20041;-61
2022/01/16 08:15:24;;;;;;;64.38;37.30;;;3.70;99.90;;;;;;5046613;28;20478;-61
2022/01/16 08:17:50;;;;;;;65.15;39.50;;;3.70;99.90;;;;;;5051286;28;20086;-61
2022/01/16 08:20:16;;;;;;;62.70;38.63;;;3.80;99.90;;;;;;5047973;28;20051;-61
2022/01/16 08:22:41;;;;;;;66.57;39.45;;;3.80;99.90;;;;;;5051277;28;20040;-60
2022/01/16 08:25:07;;;;;;;63.95;38.03;;;3.80;99.90;;;;;;5051544;28;20114;-61
2022/01/16 08:27:33;;;;;;;63.17;35.60;;;3.90;99.90;;;;;;5049046;28;20594;-61
2022/01/16 08:29:59;;;;;;;59.83;36.50;;;3.90;99.90;;;;;;5051820;28;20052;-61
2022/01/16 08:32:24;;;;;;;61.95;35.90;;;3.90;99.90;;;;;;5041059;28;20424;-61
2022/01/16 08:34:50;;;;;;;59.92;36.05;;;4.00;99.90;;;;;;5048796;28;20037;-60
2022/01/16 08:37:33;;;;;;;;;;;;;;;;;;;;;
2022/01/16 08:39:58;;;;;;;56.40;34.33;;;4.00;99.90;;;;;;5046740;28;20017;-61
2022/01/16 08:42:32;;;;;;;56.85;34.28;;;4.10;99.90;;;;;;5051703;28;20104;-61
2022/01/16 08:44:58;;;;;;;58.13;36.13;;;4.10;99.90;;;;;;5051648;28;20017;-61
2022/01/16 08:47:26;;;;;;;58.95;35.42;;;4.10;99.90;;;;;;5050932;28;20036;-61
2022/01/16 08:49:52;;;;;;;59.17;33.75;;;4.20;99.90;;;;;;5047518;28;20052;-61
2022/01/16 08:52:26;;;;;;;57.80;36.15;;;4.20;99.90;;;;;;5041068;28;20059;-61
2022/01/16 08:54:51;;;;;;;57.50;34.42;;;4.20;99.90;;;;;;5046191;28;20115;-61
2022/01/16 08:57:17;;;;;;;59.65;35.33;;;4.30;99.90;;;;;;5051551;28;20473;-61
2022/01/16 08:59:45;;;;;;;59.20;35.60;;;4.30;99.90;;;;;;5048956;28;20032;-61
2022/01/16 09:02:34;;;;;;;67.88;36.70;;;4.30;99.90;;;;;;5051433;28;20025;-61
2022/01/16 09:05:50;;;;;;;;;;;;;;;;;;;;;
2022/01/16 09:09:01;;;;;;;56.28;33.33;;;4.40;99.90;;;;;;5035404;28;20029;-61
2022/01/16 09:12:14;;;;;;;59.47;35.42;;;4.40;99.90;;;;;;5048529;28;20029;-60
2022/01/16 09:14:40;;;;;;;58.22;34.72;;;4.40;99.90;;;;;;5048922;28;20035;-61
2022/01/16 09:17:05;;;;;;;51.20;30.67;;;4.40;99.90;;;;;;5048528;28;20019;-60
2022/01/16 09:20:14;;;;;;;54.13;32.17;;;4.50;99.90;;;;;;5051595;28;20389;-61
2022/01/16 09:25:50;;;;;;;54.70;32.22;;;4.60;99.90;;;;;;5072417;28;20186;-61
2022/01/16 09:28:16;;;;;;;57.20;33.08;;;4.60;99.90;;;;;;5072195;28;20074;-61
2022/01/16 09:30:42;;;;;;;59.13;33.10;;;4.70;99.90;;;;;;5072341;28;20040;-61
2022/01/16 09:33:08;;;;;;;65.43;34.92;;;4.80;99.90;;;;;;5072091;28;20031;-61
2022/01/16 09:35:33;;;;;;;58.60;32.67;;;4.80;99.90;;;;;;5072169;28;20029;-60
2022/01/16 09:38:00;;;;;;;58.95;32.22;;;4.90;99.90;;;;;;5071990;28;20024;-60
2022/01/16 09:43:16;;;;;;;57.73;33.23;;;5.00;99.90;;;;;;5061312;28;20036;-60
2022/01/16 09:45:42;;;;;;;59.25;32.60;;;5.10;99.90;;;;;;5069279;28;20503;-60
2022/01/16 09:48:35;;;;;;;;;;;;;;;;;;;;;
2022/01/16 09:51:01;;;;;;;67.03;35.05;;;5.10;99.90;;;;;;5071061;28;20500;-61
2022/01/16 09:53:27;;;;;;;63.03;34.67;;;5.10;99.90;;;;;;5071375;28;20107;-60
2022/01/16 09:55:52;;;;;;;62.20;34.97;;;5.10;99.90;;;;;;5070178;28;20419;-61
2022/01/16 09:58:20;;;;;;;62.40;34.78;;;5.10;99.90;;;;;;5071969;28;20021;-61
2022/01/16 10:00:46;;;;;;;59.17;34.50;;;5.20;99.90;;;;;;5071949;28;20062;-61
2022/01/16 10:03:38;;;;;;;62.90;34.90;;;5.20;99.90;;;;;;5074490;28;20028;-61
2022/01/16 10:06:10;;;;;;;64.28;34.88;;;5.20;99.90;;;;;;5074358;28;20040;-60
2022/01/16 10:08:37;;;;;;;64.72;36.22;;;5.20;99.90;;;;;;5068965;28;20031;-61
2022/01/16 10:11:21;;;;;;;69.95;38.38;;;5.20;99.90;;;;;;5074760;28;20102;-60
2022/01/16 10:14:04;;;;;;;62.75;33.58;;;5.30;99.90;;;;;;5057258;28;20036;-60
2022/01/16 10:16:34;;;;;;;68.15;37.17;;;5.30;99.90;;;;;;5075167;28;20082;-60
2022/01/16 10:19:00;;;;;;;65.57;37.35;;;5.30;99.90;;;;;;5074795;28;20016;-60
2022/01/16 10:21:40;;;;;;;74.65;39.50;;;5.30;99.90;;;;;;5073980;28;20036;-60
2022/01/16 10:24:19;;;;;;;70.32;39.33;;;5.30;99.90;;;;;;5068397;28;20131;-60
2022/01/16 10:27:11;;;;;;;69.07;39.03;;;5.30;99.90;;;;;;5056212;28;20031;-61
2022/01/16 10:29:42;;;;;;;77.38;42.30;;;5.30;99.90;;;;;;5070796;28;20028;-61
2022/01/16 10:32:16;;;;;;;83.05;42.30;;;5.30;99.90;;;;;;5053923;28;21787;-60
2022/01/16 10:34:43;;;;;;;75.38;40.40;;;5.40;99.90;;;;;;5068261;28;20096;-60
2022/01/16 10:37:30;;;;;;;72.55;39.00;;;5.40;99.90;;;;;;5055708;28;20024;-61
2022/01/16 10:40:06;;;;;;;73.78;38.88;;;5.40;99.90;;;;;;5074804;28;20108;-60
2022/01/16 10:42:33;;;;;;;71.53;40.58;;;5.40;99.90;;;;;;5073870;28;20369;-60
2022/01/16 10:45:11;;;;;;;83.35;43.35;;;5.50;99.90;;;;;;5074319;28;20111;-61
2022/01/16 10:47:43;;;;;;;83.22;43.80;;;5.50;99.90;;;;;;5074770;28;20095;-60
2022/01/16 10:50:18;;;;;;;76.55;40.67;;;5.50;99.90;;;;;;5056624;28;20033;-60
2022/01/16 10:52:51;;;;;;;82.68;42.13;;;5.50;99.90;;;;;;5074516;28;20032;-60
2022/01/16 10:55:17;;;;;;;80.50;41.95;;;5.60;99.90;;;;;;5073469;28;20029;-60
2022/01/16 10:57:43;;;;;;;74.50;39.08;;;5.50;99.90;;;;;;5069540;28;20021;-60
2022/01/16 11:00:09;;;;;;;84.38;43.67;;;5.60;99.90;;;;;;5051819;28;20016;-60
2022/01/16 11:02:35;;;;;;;83.30;44.90;;;5.60;99.90;;;;;;5069861;28;20027;-60
2022/01/16 11:05:07;;;;;;;92.45;45.55;;;5.60;99.90;;;;;;5072550;28;20039;-60
2022/01/16 11:07:32;;;;;;;88.57;42.55;;;5.60;99.90;;;;;;5072217;28;20029;-60
2022/01/16 11:10:00;;;;;;;91.15;45.30;;;5.60;99.90;;;;;;5069915;28;20396;-60
2022/01/16 11:12:26;;;;;;;91.68;45.47;;;5.60;99.90;;;;;;5067444;28;20016;-60
2022/01/16 11:14:52;;;;;;;89.45;44.78;;;5.60;99.90;;;;;;5070845;28;20035;-60
2022/01/16 11:17:17;;;;;;;94.65;44.92;;;5.60;99.90;;;;;;5072011;28;20029;-60
2022/01/16 11:19:43;;;;;;;90.60;42.25;;;5.60;99.90;;;;;;5072771;28;20051;-60
2022/01/16 11:22:11;;;;;;;87.55;42.40;;;5.60;99.90;;;;;;5072728;28;20086;-60
2022/01/16 11:25:00;;;;;;;89.82;44.55;;;5.60;99.90;;;;;;5072466;28;20049;-61
2022/01/16 11:27:26;;;;;;;97.03;45.03;;;5.60;99.90;;;;;;5074055;28;20025;-60
2022/01/16 11:29:52;;;;;;;93.50;44.50;;;5.60;99.90;;;;;;5073978;28;20074;-60
2022/01/16 11:32:18;;;;;;;95.03;43.47;;;5.60;99.90;;;;;;5073710;28;20032;-61
2022/01/16 11:34:57;;;;;;;98.93;44.00;;;5.60;99.90;;;;;;5053917;28;20028;-61
2022/01/16 11:37:25;;;;;;;93.53;42.85;;;5.60;99.90;;;;;;5055390;28;20115;-61
2022/01/16 11:39:50;;;;;;;84.57;39.65;;;5.60;99.90;;;;;;5073535;28;20025;-60
2022/01/16 11:42:24;;;;;;;89.25;42.97;;;5.60;99.90;;;;;;5073444;28;20039;-60
2022/01/16 11:44:53;;;;;;;98.90;43.60;;;5.60;99.90;;;;;;5072220;28;20027;-61
2022/01/16 11:47:19;;;;;;;98.68;43.63;;;5.60;99.90;;;;;;5070168;28;20017;-60
2022/01/16 11:49:44;;;;;;;103.00;45.70;;;5.60;99.90;;;;;;5073542;28;20051;-60
2022/01/16 11:52:18;;;;;;;91.65;42.78;;;5.60;99.90;;;;;;5073453;28;20021;-61
2022/01/16 11:54:49;;;;;;;87.88;41.03;;;5.70;99.90;;;;;;5073015;28;20100;-61
2022/01/16 11:57:19;;;;;;;88.25;41.08;;;5.70;99.90;;;;;;5072468;28;20027;-61
2022/01/16 11:59:45;;;;;;;;;;;5.70;99.90;;;;;;5063226;28;20017;-61
2022/01/16 12:02:15;;;;;;;95.25;44.60;;;5.70;99.90;;;;;;5072304;28;19970;-60
2022/01/16 12:04:43;;;;;;;95.55;42.58;;;5.80;99.90;;;;;;5071969;28;20702;-60
2022/01/16 12:07:17;;;;;;;96.35;43.95;;;5.80;99.90;;;;;;5070615;28;20491;-60
2022/01/16 12:12:14;;;;;;;92.07;41.83;;;5.80;99.90;;;;;;5066685;28;20024;-60
2022/01/16 12:14:59;;;;;;;87.35;40.28;;;5.90;99.90;;;;;;5068340;28;20944;-60
2022/01/16 12:17:27;;;;;;;96.65;43.78;;;5.90;99.90;;;;;;5068458;28;20542;-60
2022/01/16 12:20:25;;;;;;;90.75;42.22;;;5.90;99.90;;;;;;5065915;28;20025;-61
2022/01/16 12:23:16;;;;;;;95.55;42.30;;;6.00;99.90;;;;;;5070576;28;20107;-61
2022/01/16 12:25:59;;;;;;;92.00;43.33;;;6.00;99.90;;;;;;5067846;28;20041;-60
2022/01/16 12:28:25;;;;;;;105.78;45.22;;;6.00;99.90;;;;;;5053234;28;20047;-60
2022/01/16 12:31:22;;;;;;;89.95;42.20;;;6.00;99.90;;;;;;5068497;28;20019;-61
2022/01/16 12:33:51;;;;;;;97.25;44.30;;;6.10;99.90;;;;;;5067631;28;20067;-60
2022/01/16 12:36:40;;;;;;;97.10;43.33;;;6.10;99.90;;;;;;5071507;28;20103;-61
2022/01/16 12:39:11;;;;;;;92.53;42.67;;;6.20;99.90;;;;;;5070859;28;20013;-61
2022/01/16 12:41:41;;;;;;;95.40;43.13;;;6.20;99.90;;;;;;5071108;28;20015;-61
2022/01/16 12:44:15;;;;;;;93.20;43.45;;;6.30;99.90;;;;;;5070104;28;20469;-61
2022/01/16 12:46:54;;;;;;;;;;;;;;;;;;;;;
2022/01/16 12:49:27;;;;;;;95.00;43.75;;;6.30;99.90;;;;;;5069114;28;20492;-61
2022/01/16 12:51:55;;;;;;;94.25;41.97;;;6.40;99.90;;;;;;5067422;28;20395;-61
2022/01/16 12:54:22;;;;;;;93.15;43.95;;;6.40;99.90;;;;;;5070149;28;20051;-60
2022/01/16 12:56:49;;;;;;;95.70;43.30;;;6.40;99.90;;;;;;5068971;28;20033;-61
2022/01/16 12:59:17;;;;;;;100.57;46.70;;;6.40;99.90;;;;;;5068081;28;20120;-61
2022/01/16 13:01:45;;;;;;;98.65;46.45;;;6.40;99.90;;;;;;5065980;28;20078;-61
2022/01/16 13:04:28;;;;;;;91.32;44.55;;;6.50;99.90;;;;;;5053341;28;20027;-61
2022/01/16 13:06:59;;;;;;;93.85;43.65;;;6.50;99.90;;;;;;5070155;28;20020;-61
2022/01/16 13:09:37;;;;;;;90.65;45.05;;;6.50;99.90;;;;;;5064969;28;20112;-61
2022/01/16 13:12:17;;;;;;;89.05;43.45;;;6.50;99.90;;;;;;5047368;28;20533;-61
2022/01/16 13:14:43;;;;;;;;;;;6.50;99.90;;;;;;5068635;28;20084;-61
2022/01/16 13:17:13;;;;;;;95.45;44.30;;;6.50;99.90;;;;;;5062958;28;19915;-61
2022/01/16 13:22:11;;;;;;;83.53;40.70;;;6.50;99.90;;;;;;5066014;28;20043;-60
2022/01/16 13:24:39;;;;;;;82.68;42.55;;;6.60;99.90;;;;;;5057097;28;20045;-61
2022/01/16 13:27:37;;;;;;;89.30;41.00;;;6.50;99.90;;;;;;5059821;28;20017;-61
2022/01/16 13:30:06;;;;;;;85.72;41.60;;;6.50;99.90;;;;;;5062518;28;20029;-61
2022/01/16 13:32:34;;;;;;;82.68;40.25;;;6.50;99.90;;;;;;5064861;28;20028;-61
2022/01/16 13:35:04;;;;;;;81.75;40.80;;;6.50;99.90;;;;;;5072868;28;20483;-61
2022/01/16 13:37:34;;;;;;;88.05;42.58;;;6.50;99.90;;;;;;5094653;28;20024;-61
2022/01/16 13:40:02;;;;;;;87.57;41.53;;;6.50;99.90;;;;;;5094477;28;20108;-61
2022/01/16 13:45:31;;;;;;;87.55;44.40;;;6.60;99.90;;;;;;5094638;28;20170;-61
2022/01/16 13:48:15;;;;;;;80.13;40.08;;;6.50;99.90;;;;;;5094371;28;20031;-60
2022/01/16 13:50:57;;;;;;;81.18;40.28;;;6.50;99.90;;;;;;5096141;28;20401;-61
2022/01/16 13:53:35;;;;;;;75.28;38.97;;;6.50;99.90;;;;;;5086177;28;20024;-61
2022/01/16 13:56:10;;;;;;;78.45;37.70;;;6.50;99.90;;;;;;5075549;28;20036;-61
2022/01/16 13:59:08;;;;;;;71.28;36.42;;;6.50;99.90;;;;;;5076698;28;20020;-61
2022/01/16 14:01:39;;;;;;;70.85;34.13;;;6.50;99.90;;;;;;5075614;28;20029;-61
2022/01/16 14:04:17;;;;;;;71.32;36.20;;;6.40;99.90;;;;;;5087833;28;20028;-61
2022/01/16 14:06:53;;;;;;;69.40;36.72;;;6.40;99.90;;;;;;5095598;28;20020;-60
2022/01/16 14:09:22;;;;;;;64.35;35.33;;;6.40;99.90;;;;;;5094012;28;20097;-61